Crum, West Virginia
Current Conditions -  °F | °C
As of 6:55 PM on Saturday 25 Oct 2014 (Local Time) from KSJS Reporting Station
Haze Haze  
Wind Chill: 63°   Ceiling: Unl
Heat Index: 63°   Visibility: 5mi
Dew Point: 52°   Wind: 5mph
Humidity: 69%   Direction: 250°WSW
Pressure: 29.97"   Gusts: NA
Location:  37.91°N, 82.44°W
Report Text: KSJS 252255Z AUTO 25004KT 5SM HZ SCT002 17/11 A2997 RMK AO2 T01710113
Loading
Personal Weather Stations






























Interactive Weather Map
Tropical Storm Tracking
New forecast layout! Learn more

10-Day Weather Forecast

Advertisements
Track Severe Weather on mobile